Terminal Aerodrome Forecast
Issued by NWS

Home | Current Version | Previous Version | Text Only | Print | Product List | Glossary On
Versions: 1 2 3 4 5 6 7 8 9 10 11 12 13 14 15 16
096
FTUS44 KLZK 270744 AAA
TAFHOT
TAF AMD
KHOT 270744Z 2708/2806 31007KT P6SM SCT015
      TEMPO 2710/2712 5SM BR BKN015
     FM271400 17006KT P6SM SCT030 SCT250
     FM272100 17007KT P6SM SCT250
     FM280000 16007KT P6SM SCT100 BKN250=

USA.gov is the U.S. government's official web portal to all federal, state and local government web resources and services.